Time;durP1;ratioP1;P1;durP2;ratioP2;P2;SDS_P1;SDS_P2;PMS_P1;PMS_P2;Temp;Humidity;BMP_temperature;BMP_pressure;BME280_temperature;BME280_humidity;BME280_pressure;Samples;Min_cycle;Max_cycle;Signal;HPM_P1;HPM_P2
2022/01/20 00:01:27;;;;;;;16.20;8.05;;;;;;;2.99;100.00;100455.22;12241612;19;20433;-82
2022/01/20 00:27:26;;;;;;;14.95;7.10;;;;;;;3.16;100.00;100478.53;12250910;19;20042;-82
2022/01/20 00:31:45;;;;;;;13.10;6.07;;;;;;;3.19;100.00;100470.00;12232738;19;20010;-82
2022/01/20 00:40:08;;;;;;;11.05;6.43;;;;;;;3.25;100.00;100476.59;12248140;19;20120;-83
2022/01/20 00:44:09;;;;;;;10.65;6.20;;;;;;;3.22;100.00;100478.84;12246916;19;20010;-82
2022/01/20 00:48:11;;;;;;;10.25;5.75;;;;;;;3.29;100.00;100482.50;12247289;19;20732;-81
2022/01/20 00:52:14;;;;;;;11.00;5.77;;;;;;;3.28;100.00;100475.38;12242707;19;20049;-82
2022/01/20 00:56:15;;;;;;;10.70;6.03;;;;;;;3.27;100.00;100479.09;12247995;19;20019;-82
2022/01/20 01:00:17;;;;;;;11.52;5.63;;;;;;;3.33;100.00;100483.81;12246988;19;20015;-82
2022/01/20 01:04:19;;;;;;;10.80;5.22;;;;;;;3.29;100.00;100469.72;12236329;19;20480;-82
2022/01/20 01:08:20;;;;;;;9.60;5.72;;;;;;;3.31;100.00;100481.28;12233078;19;20050;-81
2022/01/20 01:12:59;;;;;;;9.90;5.65;;;;;;;3.37;100.00;100485.16;12242013;19;20026;-81
2022/01/20 01:24:58;;;;;;;9.05;5.30;;;;;;;3.59;100.00;100480.63;12235309;19;20018;-80
2022/01/20 01:29:00;;;;;;;9.60;4.93;;;;;;;3.60;100.00;100483.19;12239066;19;20389;-81
2022/01/20 01:33:04;;;;;;;9.50;5.18;;;;;;;3.55;100.00;100490.22;12244575;19;21340;-80
2022/01/20 01:37:23;;;;;;;7.88;4.53;;;;;;;3.58;100.00;100493.41;12244079;19;20067;-83
2022/01/20 01:41:31;;;;;;;9.55;5.07;;;;;;;3.64;100.00;100491.81;12239767;19;20721;-82
2022/01/20 01:45:39;;;;;;;9.27;4.78;;;;;;;3.67;100.00;100502.34;12242864;19;20012;-82
2022/01/20 01:49:46;;;;;;;9.30;4.43;;;;;;;3.62;100.00;100483.81;12221713;19;20360;-82
2022/01/20 01:53:48;;;;;;;6.40;4.28;;;;;;;3.57;100.00;100494.47;12242669;19;20082;-83
2022/01/20 01:57:50;;;;;;;8.18;5.45;;;;;;;3.57;100.00;100497.19;12232100;19;20081;-82
2022/01/20 02:01:54;;;;;;;9.70;4.35;;;;;;;3.57;100.00;100499.91;12225693;19;20693;-81
2022/01/20 02:18:51;;;;;;;;;;;;;;;3.18;100.00;100490.09;12232980;19;20010;-81
2022/01/20 02:23:06;;;;;;;8.90;4.53;;;;;;;3.09;100.00;100496.63;12215551;19;19950;-81
2022/01/20 02:27:07;;;;;;;9.00;4.60;;;;;;;2.95;100.00;100486.56;12224814;19;20354;-81
2022/01/20 02:31:14;;;;;;;8.80;4.45;;;;;;;2.86;100.00;100496.69;12226245;19;20279;-80
2022/01/20 02:35:15;;;;;;;9.10;5.03;;;;;;;2.84;100.00;100500.63;12216825;19;20508;-80
2022/01/20 02:47:50;;;;;;;11.23;4.93;;;;;;;2.80;100.00;100499.28;12230620;19;20014;-82
2022/01/20 02:51:54;;;;;;;12.07;4.25;;;;;;;2.81;100.00;100498.25;12225241;19;20018;-81
2022/01/20 02:55:56;;;;;;;9.43;4.82;;;;;;;2.86;100.00;100504.00;12232673;19;20074;-82
2022/01/20 02:59:57;;;;;;;10.20;4.93;;;;;;;2.91;100.00;100501.56;12229210;19;20358;-82
2022/01/20 03:04:02;;;;;;;8.82;5.03;;;;;;;2.95;100.00;100494.75;12235191;19;20156;-81
2022/01/20 03:08:04;;;;;;;10.38;4.78;;;;;;;3.02;100.00;100490.25;12225182;19;20003;-82
2022/01/20 03:12:06;;;;;;;10.73;4.88;;;;;;;3.04;100.00;100490.91;12231939;19;20017;-81
2022/01/20 03:16:08;;;;;;;9.95;5.20;;;;;;;3.08;100.00;100486.78;12225058;19;20082;-80
2022/01/20 03:20:10;;;;;;;10.95;5.30;;;;;;;3.16;100.00;100489.44;12228545;19;20021;-81
2022/01/20 03:24:12;;;;;;;8.90;4.72;;;;;;;3.13;100.00;100500.69;12231186;19;20010;-81
2022/01/20 03:28:16;;;;;;;9.60;4.80;;;;;;;3.20;100.00;100498.91;12226635;19;20010;-81
2022/01/20 03:32:18;;;;;;;9.10;4.80;;;;;;;3.20;100.00;100506.25;12236825;19;20042;-81
2022/01/20 03:36:20;;;;;;;9.25;4.80;;;;;;;3.23;100.00;100499.59;12240845;19;20028;-80
2022/01/20 03:40:32;;;;;;;9.57;4.35;;;;;;;3.20;100.00;100501.63;12233710;19;20034;-81
2022/01/20 03:44:34;;;;;;;12.63;5.00;;;;;;;3.20;100.00;100504.38;12230760;19;20018;-81
2022/01/20 03:48:48;;;;;;;9.55;4.80;;;;;;;3.21;100.00;100505.19;12226977;19;20330;-81
2022/01/20 03:52:50;;;;;;;8.38;4.70;;;;;;;3.24;100.00;100509.44;12233653;19;20030;-81
2022/01/20 03:56:52;;;;;;;8.73;4.57;;;;;;;3.28;100.00;100514.34;12232152;19;20248;-82
2022/01/20 04:01:17;;;;;;;9.77;5.32;;;;;;;3.28;100.00;100517.06;12225493;19;20015;-82
2022/01/20 04:05:49;;;;;;;9.07;4.77;;;;;;;3.18;100.00;100511.91;12230860;19;20367;-81
2022/01/20 04:10:11;;;;;;;9.45;5.05;;;;;;;3.10;100.00;100517.41;12224133;19;20487;-81
2022/01/20 04:14:13;;;;;;;13.02;5.10;;;;;;;2.96;100.00;100513.59;12227546;19;20022;-81
2022/01/20 04:18:21;;;;;;;9.40;5.30;;;;;;;2.83;100.00;100507.94;12230567;19;20018;-81
2022/01/20 04:22:24;;;;;;;11.00;5.28;;;;;;;2.69;100.00;100498.69;12228205;19;20343;-81
2022/01/20 04:26:26;;;;;;;11.52;5.00;;;;;;;2.50;100.00;100507.34;12227262;19;20022;-82
2022/01/20 04:30:29;;;;;;;9.48;5.25;;;;;;;2.34;100.00;100502.81;12234026;19;20560;-82
2022/01/20 04:34:31;;;;;;;10.43;4.80;;;;;;;2.20;100.00;100509.91;12236836;19;20868;-82
2022/01/20 04:38:33;;;;;;;10.50;4.68;;;;;;;2.11;100.00;100504.66;12228767;19;20007;-82
2022/01/20 04:42:37;;;;;;;10.07;4.97;;;;;;;2.00;100.00;100500.47;12229225;19;20427;-81
2022/01/20 04:46:56;;;;;;;9.70;5.45;;;;;;;1.93;100.00;100491.31;12227973;19;20050;-82
2022/01/20 04:59:39;;;;;;;11.52;5.00;;;;;;;1.90;100.00;100481.66;12238867;19;20070;-81
2022/01/20 05:03:43;;;;;;;12.45;6.18;;;;;;;1.93;100.00;100485.88;12217835;19;20015;-81
2022/01/20 05:07:55;;;;;;;10.65;5.70;;;;;;;1.98;100.00;100478.91;12224440;19;20006;-82
2022/01/20 05:12:01;;;;;;;16.00;6.38;;;;;;;2.01;100.00;100466.81;12232051;19;20018;-82
2022/01/20 05:16:04;;;;;;;14.35;6.05;;;;;;;2.03;100.00;100460.19;12224797;19;20026;-81
2022/01/20 05:20:07;;;;;;;13.97;5.17;;;;;;;2.09;100.00;100466.78;12231393;19;20066;-80
2022/01/20 05:24:09;;;;;;;10.55;5.45;;;;;;;2.16;100.00;100469.63;12231526;19;20653;-82
2022/01/20 05:28:10;;;;;;;14.52;5.72;;;;;;;2.14;100.00;100479.84;12223779;19;21520;-82
2022/01/20 05:32:14;;;;;;;10.75;5.13;;;;;;;2.11;100.00;100474.75;12229109;19;20046;-82
2022/01/20 05:36:15;;;;;;;14.88;5.50;;;;;;;2.09;100.00;100485.81;12226090;19;20014;-82
2022/01/20 05:40:18;;;;;;;19.60;5.35;;;;;;;2.12;100.00;100490.06;12218539;19;20030;-82
2022/01/20 05:44:19;;;;;;;12.23;5.03;;;;;;;2.14;100.00;100494.31;12227926;19;20014;-82
2022/01/20 05:48:32;;;;;;;16.98;6.32;;;;;;;2.22;100.00;100499.66;12226592;19;20491;-81
2022/01/20 05:52:52;;;;;;;11.80;5.28;;;;;;;2.36;100.00;100498.06;12229110;19;20035;-82
2022/01/20 05:56:54;;;;;;;24.43;6.40;;;;;;;2.44;100.00;100513.47;12225525;19;20019;-81
2022/01/20 06:00:56;;;;;;;11.95;4.75;;;;;;;2.47;100.00;100500.38;12227229;19;20378;-81
2022/01/20 06:04:59;;;;;;;14.25;5.30;;;;;;;2.56;100.00;100508.47;12217252;19;20370;-81
2022/01/20 06:09:04;;;;;;;11.73;5.03;;;;;;;2.60;100.00;100518.81;12220993;19;20030;-82
2022/01/20 06:13:06;;;;;;;18.98;5.03;;;;;;;2.61;100.00;100525.94;12232395;19;20460;-81
2022/01/20 06:17:10;;;;;;;15.27;5.03;;;;;;;2.55;100.00;100502.19;12217222;19;20014;-80
2022/01/20 06:21:12;;;;;;;14.53;4.83;;;;;;;2.41;100.00;100495.66;12223434;19;20066;-80
2022/01/20 06:25:14;;;;;;;11.82;4.53;;;;;;;2.19;100.00;100486.44;12218775;19;20591;-83
2022/01/20 06:29:17;;;;;;;;;;;;;;;2.08;100.00;100494.97;12224941;19;20014;-81
2022/01/20 06:33:19;;;;;;;15.25;5.13;;;;;;;2.11;100.00;100478.31;12229360;19;19974;-81
2022/01/20 06:37:27;;;;;;;16.92;4.80;;;;;;;1.98;100.00;100481.63;12224343;19;20011;-81
2022/01/20 06:41:33;;;;;;;16.50;5.65;;;;;;;1.78;100.00;100489.34;12229227;19;20007;-81
2022/01/20 06:45:35;;;;;;;17.48;6.10;;;;;;;1.75;100.00;100503.28;12232112;19;20038;-81
2022/01/20 06:49:42;;;;;;;22.60;6.90;;;;;;;1.87;100.00;100511.91;12224814;19;20018;-81
2022/01/20 06:53:44;;;;;;;14.30;5.07;;;;;;;2.00;100.00;100524.94;12217983;19;20054;-82
2022/01/20 06:57:48;;;;;;;17.20;5.57;;;;;;;2.05;100.00;100517.09;12230739;19;20015;-81
2022/01/20 07:01:51;;;;;;;13.23;5.38;;;;;;;2.13;100.00;100525.22;12237741;19;20603;-81
2022/01/20 07:06:00;;;;;;;15.02;5.38;;;;;;;2.20;100.00;100533.50;12233807;19;20360;-81
2022/01/20 07:10:08;;;;;;;15.30;5.13;;;;;;;2.26;100.00;100539.09;12241667;19;20010;-81
2022/01/20 07:14:17;;;;;;;14.27;3.67;;;;;;;2.30;100.00;100530.56;12227954;19;20034;-81
2022/01/20 07:18:19;;;;;;;16.25;4.90;;;;;;;2.33;100.00;100541.94;12218995;19;20018;-81
2022/01/20 07:22:21;;;;;;;8.70;3.25;;;;;;;2.25;100.00;100541.97;12208293;19;20010;-81
2022/01/20 07:26:26;;;;;;;15.77;3.88;;;;;;;2.19;100.00;100562.56;12236317;19;20472;-80
2022/01/20 07:30:43;;;;;;;17.00;4.45;;;;;;;2.13;100.00;100567.88;12240697;19;20031;-80
2022/01/20 07:34:45;;;;;;;17.08;4.32;;;;;;;2.07;100.00;100563.97;12249965;19;20463;-81
2022/01/20 07:38:47;;;;;;;17.60;4.63;;;;;;;2.08;100.00;100572.97;12240405;19;20066;-81
2022/01/20 07:42:49;;;;;;;15.93;4.70;;;;;;;2.19;100.00;100573.44;12236736;19;20026;-82
2022/01/20 07:47:29;;;;;;;14.00;4.22;;;;;;;2.22;100.00;100577.69;12236648;19;20062;-81
2022/01/20 07:51:32;;;;;;;16.42;4.28;;;;;;;2.25;100.00;100589.03;12239729;19;20051;-81
2022/01/20 07:55:34;;;;;;;18.60;4.07;;;;;;;2.27;100.00;100572.56;12240167;19;20121;-80
2022/01/20 07:59:38;;;;;;;10.90;3.10;;;;;;;2.24;100.00;100575.66;12242457;19;20006;-81
2022/01/20 08:03:42;;;;;;;11.25;3.75;;;;;;;2.32;100.00;100604.66;12237387;19;20094;-81
2022/01/20 08:07:48;;;;;;;9.63;2.35;;;;;;;2.39;100.00;100587.47;12236475;19;20010;-80
2022/01/20 08:11:50;;;;;;;12.32;2.40;;;;;;;2.44;100.00;100589.63;12190715;19;20027;-81
2022/01/20 08:16:08;;;;;;;14.00;2.63;;;;;;;2.47;100.00;100602.91;12233805;19;20013;-81
2022/01/20 08:20:11;;;;;;;12.70;3.47;;;;;;;2.45;100.00;100604.94;12233906;19;20011;-81
2022/01/20 08:24:13;;;;;;;8.07;2.67;;;;;;;2.44;100.00;100612.28;12229902;19;20012;-82
2022/01/20 08:28:17;;;;;;;11.63;2.83;;;;;;;2.39;100.00;100621.97;12233886;19;20006;-81
2022/01/20 08:32:19;;;;;;;14.60;2.45;;;;;;;2.42;100.00;100616.19;12229212;19;20010;-80
2022/01/20 08:36:30;;;;;;;12.80;2.70;;;;;;;2.47;100.00;100630.13;12230230;19;20451;-80
2022/01/20 08:40:31;;;;;;;18.80;5.68;;;;;;;2.53;100.00;100631.25;12237491;19;20021;-80
2022/01/20 08:44:34;;;;;;;;;;;;;;;2.50;100.00;100630.59;12234688;19;20010;-80
2022/01/20 08:48:38;;;;;;;14.75;4.15;;;;;;;2.63;100.00;100627.31;12236176;19;19915;-80
2022/01/20 08:52:46;;;;;;;8.55;3.65;;;;;;;2.77;100.00;100627.56;12231532;19;20039;-80
2022/01/20 08:56:50;;;;;;;12.25;2.85;;;;;;;2.90;100.00;100631.38;12233735;19;20048;-80
2022/01/20 09:00:52;;;;;;;10.82;3.03;;;;;;;2.91;100.00;100633.06;12229905;19;20014;-81
2022/01/20 09:04:55;;;;;;;10.98;2.83;;;;;;;2.94;100.00;100642.75;12235371;19;20030;-80
2022/01/20 09:09:23;;;;;;;15.20;4.25;;;;;;;2.93;100.00;100654.69;12230640;19;20035;-81
2022/01/20 09:17:49;;;;;;;13.65;4.18;;;;;;;3.31;100.00;100662.94;12232052;19;20015;-80
2022/01/20 09:21:51;;;;;;;17.58;3.80;;;;;;;3.39;100.00;100658.28;12230896;19;20118;-80
2022/01/20 09:25:53;;;;;;;11.93;2.15;;;;;;;3.41;100.00;100652.66;12231519;19;20028;-80
2022/01/20 09:29:55;;;;;;;5.93;1.70;;;;;;;3.47;100.00;100665.53;12227871;19;20078;-81
2022/01/20 09:33:58;;;;;;;9.02;1.35;;;;;;;3.44;100.00;100663.19;12232616;19;20027;-81
2022/01/20 09:38:04;;;;;;;7.55;2.00;;;;;;;3.51;100.00;100666.00;12233265;19;20010;-82
2022/01/20 09:42:07;;;;;;;3.22;1.40;;;;;;;3.68;100.00;100683.09;12232287;19;20105;-80
2022/01/20 09:46:10;;;;;;;7.97;3.15;;;;;;;3.87;100.00;100685.31;12231546;19;20018;-81
2022/01/20 09:50:19;;;;;;;4.60;1.55;;;;;;;3.98;100.00;100694.91;12222422;19;20406;-80
2022/01/20 09:54:40;;;;;;;7.35;1.90;;;;;;;4.02;98.13;100697.09;12234439;19;20016;-81
2022/01/20 09:58:51;;;;;;;7.28;2.53;;;;;;;3.97;99.40;100715.88;12239307;19;20030;-83
2022/01/20 10:03:09;;;;;;;5.55;1.73;;;;;;;3.88;99.45;100719.72;12234307;19;20011;-80
2022/01/20 10:07:13;;;;;;;10.85;3.15;;;;;;;3.74;99.55;100721.34;12235426;19;20013;-81
2022/01/20 10:11:19;;;;;;;7.05;2.10;;;;;;;3.74;99.37;100729.53;12238141;19;20006;-82
2022/01/20 10:15:28;;;;;;;7.03;1.75;;;;;;;3.61;98.90;100735.59;12236412;19;20062;-83
2022/01/20 10:19:40;;;;;;;5.35;1.75;;;;;;;3.57;99.22;100723.38;12244014;19;20374;-82
2022/01/20 10:23:53;;;;;;;5.13;1.27;;;;;;;3.57;98.99;100730.69;12233075;19;20047;-81
2022/01/20 10:28:08;;;;;;;4.88;1.40;;;;;;;3.69;98.64;100733.84;12239898;19;20023;-82
2022/01/20 10:32:12;;;;;;;6.28;2.03;;;;;;;3.83;98.27;100741.22;12230605;19;20007;-82
2022/01/20 10:36:27;;;;;;;7.15;1.75;;;;;;;4.03;96.60;100736.97;12231451;19;20337;-82
2022/01/20 10:41:08;;;;;;;9.07;2.05;;;;;;;4.36;94.43;100725.72;12235905;19;20026;-81
2022/01/20 10:45:23;;;;;;;5.72;2.10;;;;;;;4.71;93.04;100739.66;12235719;19;21403;-82
2022/01/20 10:49:30;;;;;;;;;;;;;;;4.99;87.93;100735.19;12241139;19;20011;-82
2022/01/20 10:53:32;;;;;;;3.45;1.20;;;;;;;5.05;80.05;100744.50;12232418;19;19906;-83
2022/01/20 10:57:38;;;;;;;4.55;1.38;;;;;;;4.96;81.07;100730.13;12240079;19;20051;-80
2022/01/20 11:02:06;;;;;;;8.60;2.00;;;;;;;4.98;76.66;100725.31;12243959;19;20007;-83
2022/01/20 11:06:10;;;;;;;6.60;1.88;;;;;;;5.01;73.92;100719.47;12235889;19;20484;-82
2022/01/20 11:10:19;;;;;;;7.88;1.52;;;;;;;5.10;74.56;100713.91;12228794;19;20011;-82
2022/01/20 11:14:21;;;;;;;5.15;1.50;;;;;;;5.17;73.58;100717.53;12233323;19;20079;-81
2022/01/20 11:18:29;;;;;;;5.25;1.45;;;;;;;5.10;75.43;100700.25;12242282;19;20010;-81
2022/01/20 11:22:35;;;;;;;4.75;1.63;;;;;;;5.05;75.46;100698.06;12225219;19;20467;-82
2022/01/20 11:26:56;;;;;;;6.83;1.80;;;;;;;4.88;74.00;100702.94;12234575;19;20007;-81
2022/01/20 11:31:15;;;;;;;7.45;2.92;;;;;;;4.78;74.37;100705.09;12229903;19;20070;-82
2022/01/20 11:35:49;;;;;;;12.00;1.92;;;;;;;4.70;74.41;100705.19;12226266;19;20024;-82
2022/01/20 11:40:15;;;;;;;5.15;1.50;;;;;;;4.87;74.75;100701.22;12230907;19;20452;-82
2022/01/20 11:44:19;;;;;;;5.07;2.22;;;;;;;4.99;73.07;100704.31;12244252;19;20041;-82
2022/01/20 11:48:24;;;;;;;6.57;1.40;;;;;;;5.00;73.37;100728.72;12230588;19;20078;-81
2022/01/20 11:52:27;;;;;;;8.45;1.88;;;;;;;4.91;70.35;100727.13;12238421;19;20011;-82
2022/01/20 11:56:50;;;;;;;4.50;1.40;;;;;;;4.61;70.17;100726.31;12237767;19;20006;-81
2022/01/20 12:01:01;;;;;;;;;;;;;;;4.36;72.80;100730.34;12252782;19;20011;-82
2022/01/20 12:05:20;;;;;;;12.85;1.95;;;;;;;4.22;73.60;100732.84;12244332;19;20384;-82
2022/01/20 12:09:50;;;;;;;5.00;1.55;;;;;;;4.01;73.65;100722.66;12236693;19;20002;-80
2022/01/20 12:13:54;;;;;;;7.38;1.60;;;;;;;3.93;72.77;100720.03;12236794;19;20046;-82
2022/01/20 12:17:58;;;;;;;9.18;1.77;;;;;;;3.96;73.44;100722.38;12236917;19;20010;-80
2022/01/20 12:22:02;;;;;;;6.10;1.50;;;;;;;4.07;73.01;100731.97;12233619;19;20010;-80
2022/01/20 12:26:05;;;;;;;16.42;1.98;;;;;;;4.16;72.34;100741.78;12235600;19;20069;-81
2022/01/20 12:30:16;;;;;;;6.10;1.55;;;;;;;4.16;71.56;100740.94;12240388;19;20099;-82
2022/01/20 12:34:21;;;;;;;9.65;2.35;;;;;;;4.19;70.54;100744.13;12233219;19;20031;-81
2022/01/20 12:38:26;;;;;;;8.15;2.22;;;;;;;4.20;69.68;100737.66;12235685;19;20006;-81
2022/01/20 12:42:36;;;;;;;6.53;1.95;;;;;;;4.21;71.44;100722.97;12234930;19;20025;-81
2022/01/20 12:46:39;;;;;;;6.32;1.73;;;;;;;4.20;71.47;100720.44;12245332;19;20014;-82
2022/01/20 12:51:05;;;;;;;9.70;2.42;;;;;;;4.60;71.84;100737.41;12247481;19;20011;-81
2022/01/20 12:55:07;;;;;;;9.65;2.67;;;;;;;5.31;69.97;100735.78;12238642;19;20018;-83
2022/01/20 12:59:10;;;;;;;8.60;1.90;;;;;;;5.85;69.31;100743.50;12242481;19;20046;-82
2022/01/20 13:03:34;;;;;;;4.57;1.45;;;;;;;6.25;65.54;100757.56;12244660;19;20127;-81
2022/01/20 13:07:37;;;;;;;9.70;1.50;;;;;;;5.94;61.78;100750.56;12236599;19;20384;-80
2022/01/20 13:11:59;;;;;;;8.07;1.75;;;;;;;5.43;63.10;100755.28;12239133;19;20026;-80
2022/01/20 13:16:15;;;;;;;7.20;1.63;;;;;;;5.15;65.58;100766.09;12236567;19;20015;-81
2022/01/20 13:20:23;;;;;;;6.70;2.13;;;;;;;4.40;74.06;100776.16;12222375;19;20035;-80
2022/01/20 13:24:30;;;;;;;3.17;1.17;;;;;;;3.33;81.22;100789.78;12226541;19;20080;-82
2022/01/20 13:28:32;;;;;;;8.68;1.83;;;;;;;2.89;84.04;100763.09;12237676;19;20010;-81
2022/01/20 13:32:33;;;;;;;5.65;2.00;;;;;;;2.66;85.47;100782.06;12232146;19;20126;-82
2022/01/20 13:36:47;;;;;;;9.15;1.55;;;;;;;2.61;86.82;100776.28;12228056;19;20014;-80
2022/01/20 13:40:49;;;;;;;3.05;1.30;;;;;;;2.60;87.21;100763.72;12234973;19;20018;-82
2022/01/20 13:45:21;;;;;;;3.30;1.30;;;;;;;2.43;88.54;100771.06;12233439;19;20050;-80
2022/01/20 13:49:22;;;;;;;3.90;1.75;;;;;;;2.47;87.90;100766.13;12229205;19;20014;-81
2022/01/20 13:53:27;;;;;;;5.53;1.38;;;;;;;2.49;87.41;100758.63;12234110;19;20015;-82
2022/01/20 13:57:37;;;;;;;4.90;1.30;;;;;;;2.42;87.67;100763.09;12231938;19;20022;-81
2022/01/20 14:01:39;;;;;;;7.45;2.55;;;;;;;2.35;87.89;100767.50;12230051;19;20010;-82
2022/01/20 14:05:41;;;;;;;4.88;1.70;;;;;;;2.29;88.10;100774.50;12224921;19;20014;-81
2022/01/20 14:09:43;;;;;;;5.50;1.33;;;;;;;2.28;88.00;100784.50;12231163;19;20381;-82
2022/01/20 14:13:45;;;;;;;9.48;1.92;;;;;;;2.28;88.04;100770.91;12236566;19;20026;-84
2022/01/20 14:17:55;;;;;;;9.80;2.22;;;;;;;2.19;87.85;100790.13;12235048;19;20014;-81
2022/01/20 14:21:58;;;;;;;11.25;2.53;;;;;;;2.04;88.32;100782.66;12222938;19;20018;-82
2022/01/20 14:26:04;;;;;;;4.10;1.67;;;;;;;1.97;88.34;100783.53;12232500;19;20084;-83
2022/01/20 14:30:09;;;;;;;9.63;1.80;;;;;;;2.04;88.24;100790.81;12234123;19;20471;-82
2022/01/20 14:34:12;;;;;;;7.65;2.55;;;;;;;2.09;88.08;100790.31;12240932;19;20102;-83
2022/01/20 14:38:14;;;;;;;8.80;2.08;;;;;;;2.07;87.71;100802.38;12234583;19;20031;-81
2022/01/20 14:42:17;;;;;;;4.13;1.10;;;;;;;1.95;88.00;100794.56;12237509;19;20034;-81
2022/01/20 14:46:19;;;;;;;13.43;4.40;;;;;;;1.87;87.93;100797.28;12236740;19;19999;-82
2022/01/20 14:50:23;;;;;;;10.18;3.50;;;;;;;1.79;88.23;100783.69;12229698;19;20006;-81
2022/01/20 14:54:24;;;;;;;11.68;3.13;;;;;;;1.79;88.48;100789.97;12228725;19;20418;-82
2022/01/20 14:58:27;;;;;;;16.70;6.50;;;;;;;1.90;88.57;100799.66;12225489;19;20500;-82
2022/01/20 15:02:28;;;;;;;6.67;1.70;;;;;;;2.01;87.52;100791.16;12229067;19;20010;-83
2022/01/20 15:06:31;;;;;;;8.18;1.80;;;;;;;2.16;86.78;100791.31;12238910;19;20259;-83
2022/01/20 15:10:33;;;;;;;;;;;;;;;2.23;86.26;100803.22;12235534;19;20003;-82
2022/01/20 15:14:36;;;;;;;6.85;1.65;;;;;;;2.38;85.41;100797.06;12229618;19;19937;-82
2022/01/20 15:18:40;;;;;;;4.72;1.20;;;;;;;2.46;84.33;100805.22;12252779;19;20011;-83
2022/01/20 15:22:41;;;;;;;3.95;1.20;;;;;;;2.46;84.38;100803.34;12228587;19;20031;-82
2022/01/20 15:26:43;;;;;;;8.82;2.28;;;;;;;2.49;83.91;100802.16;12221353;19;20421;-82
2022/01/20 15:30:45;;;;;;;14.55;3.75;;;;;;;2.56;83.56;100796.88;12214707;19;20014;-82
2022/01/20 15:34:47;;;;;;;7.95;2.10;;;;;;;2.55;83.76;100796.03;12214140;19;20063;-81
2022/01/20 15:38:49;;;;;;;8.25;2.70;;;;;;;2.60;82.90;100792.78;12217046;19;20010;-82
2022/01/20 15:42:50;;;;;;;7.88;2.22;;;;;;;2.63;82.69;100787.84;12221383;19;20356;-83
2022/01/20 15:46:52;;;;;;;5.75;1.95;;;;;;;2.66;82.73;100798.38;12226101;19;20047;-80
2022/01/20 15:51:00;;;;;;;8.38;2.17;;;;;;;2.60;82.75;100798.25;12228758;19;20034;-81
2022/01/20 15:55:09;;;;;;;8.20;1.75;;;;;;;2.54;82.74;100805.22;12251041;19;20011;-80
2022/01/20 15:59:11;;;;;;;6.13;1.85;;;;;;;2.55;83.29;100806.06;12248625;19;21125;-81
2022/01/20 16:03:13;;;;;;;7.07;1.50;;;;;;;2.54;83.45;100816.09;12240644;19;20011;-81
2022/01/20 16:07:15;;;;;;;8.93;2.23;;;;;;;2.52;83.60;100812.69;12239904;19;20030;-82
2022/01/20 16:11:16;;;;;;;7.22;2.40;;;;;;;2.56;83.81;100816.78;12239760;19;20014;-81
2022/01/20 16:15:18;;;;;;;6.28;2.05;;;;;;;2.56;83.77;100824.06;12237564;19;20006;-82
2022/01/20 16:19:20;;;;;;;11.48;2.20;;;;;;;2.51;83.66;100825.47;12250327;19;20111;-84
2022/01/20 16:23:21;;;;;;;6.88;2.40;;;;;;;2.44;83.93;100843.50;12244351;19;20015;-84
2022/01/20 16:27:24;;;;;;;9.90;1.95;;;;;;;2.43;83.96;100854.53;12251426;19;20070;-83
2022/01/20 16:31:27;;;;;;;4.00;1.95;;;;;;;2.37;84.11;100860.66;12246903;19;20098;-82
2022/01/20 16:35:29;;;;;;;8.88;3.67;;;;;;;2.32;84.54;100863.91;12252154;19;20358;-83
2022/01/20 16:39:31;;;;;;;16.08;3.55;;;;;;;2.25;84.22;100876.47;12251135;19;20011;-83
2022/01/20 16:43:33;;;;;;;9.30;2.60;;;;;;;2.15;84.36;100878.53;12251662;19;20011;-83
2022/01/20 16:47:37;;;;;;;7.60;2.20;;;;;;;2.08;84.90;100875.59;12255978;19;20007;-83
2022/01/20 16:51:39;;;;;;;10.77;2.78;;;;;;;2.03;84.82;100883.44;12251272;19;20014;-83
2022/01/20 16:55:41;;;;;;;10.00;2.55;;;;;;;1.90;84.64;100886.63;12243073;19;20066;-84
2022/01/20 16:59:42;;;;;;;5.53;2.08;;;;;;;1.76;85.27;100899.00;12247099;19;20066;-82
2022/01/20 17:03:44;;;;;;;11.73;3.07;;;;;;;1.74;85.98;100900.19;12247887;19;20353;-82
2022/01/20 17:07:46;;;;;;;10.18;2.50;;;;;;;1.79;85.43;100904.13;12246660;19;20006;-83
2022/01/20 17:11:49;;;;;;;11.00;3.42;;;;;;;1.90;85.14;100915.69;12253389;19;20078;-83
2022/01/20 17:15:50;;;;;;;9.48;2.92;;;;;;;1.95;85.19;100918.75;12236435;19;20006;-81
2022/01/20 17:19:53;;;;;;;8.23;2.47;;;;;;;1.93;85.02;100918.06;12228707;19;20007;-84
2022/01/20 17:23:55;;;;;;;5.97;2.20;;;;;;;1.89;85.21;100912.13;12225391;19;20035;-81
2022/01/20 17:27:56;;;;;;;19.13;5.43;;;;;;;1.85;85.46;100915.34;12237735;19;20035;-83
2022/01/20 17:31:59;;;;;;;14.18;3.10;;;;;;;1.76;86.25;100920.75;12235354;19;20349;-83
2022/01/20 17:36:01;;;;;;;;;;;;;;;1.65;87.61;100923.78;12225392;19;20014;-82
2022/01/20 17:40:05;;;;;;;14.38;4.57;;;;;;;1.51;88.28;100927.09;12223376;19;20225;-83
2022/01/20 17:44:07;;;;;;;10.77;3.53;;;;;;;1.33;89.75;100914.47;12213330;19;20057;-82
2022/01/20 17:48:09;;;;;;;11.50;3.47;;;;;;;1.19;90.55;100911.50;12235523;19;20548;-84
2022/01/20 17:52:10;;;;;;;9.60;2.45;;;;;;;1.08;91.52;100928.94;12231765;19;20031;-83
2022/01/20 17:56:12;;;;;;;11.95;3.63;;;;;;;0.95;92.62;100948.34;12242737;19;20034;-83
2022/01/20 18:00:15;;;;;;;7.53;2.50;;;;;;;0.84;92.83;100948.63;12233688;19;20119;-81
2022/01/20 18:04:19;;;;;;;7.00;2.10;;;;;;;0.79;93.15;100940.97;12236192;19;20081;-83
2022/01/20 18:08:20;;;;;;;;;;;;;;;0.73;93.79;100948.88;12214859;19;20412;-84
2022/01/20 18:12:22;;;;;;;13.07;2.65;;;;;;;0.77;93.20;100944.84;12221462;19;20269;-82
2022/01/20 18:16:24;;;;;;;8.27;2.53;;;;;;;0.87;93.14;100954.59;12229908;19;20483;-82
2022/01/20 18:20:25;;;;;;;15.38;2.53;;;;;;;0.97;93.36;100938.19;12224800;19;20461;-82
2022/01/20 18:24:27;;;;;;;11.70;2.95;;;;;;;0.99;93.90;100943.47;12227782;19;20038;-83
2022/01/20 18:28:29;;;;;;;5.82;1.70;;;;;;;0.84;94.94;100952.19;12226867;19;20074;-83
2022/01/20 18:32:31;;;;;;;10.50;2.53;;;;;;;0.71;95.02;100949.03;12225459;19;20010;-84
2022/01/20 18:36:32;;;;;;;8.05;2.35;;;;;;;0.58;95.48;100945.88;12229170;19;20042;-82
2022/01/20 18:40:34;;;;;;;9.77;2.97;;;;;;;0.50;95.79;100948.53;12219409;19;20007;-82
2022/01/20 18:44:36;;;;;;;9.53;4.33;;;;;;;0.42;96.37;100952.88;12229614;19;20042;-83
2022/01/20 18:48:38;;;;;;;15.25;4.03;;;;;;;0.33;96.74;100945.69;12231298;19;20345;-84
2022/01/20 18:52:40;;;;;;;13.85;3.83;;;;;;;0.36;96.70;100952.66;12228935;19;20010;-82
2022/01/20 18:56:42;;;;;;;18.92;5.20;;;;;;;0.47;97.35;100959.69;12243808;19;20032;-83
2022/01/20 19:00:44;;;;;;;18.92;5.45;;;;;;;0.54;97.09;100956.22;12232608;19;20037;-84
2022/01/20 19:04:49;;;;;;;16.83;5.05;;;;;;;0.58;96.98;100964.88;12238156;19;20015;-83
2022/01/20 19:08:51;;;;;;;12.00;5.22;;;;;;;0.68;97.21;100966.50;12238837;19;20010;-83
2022/01/20 19:12:53;;;;;;;12.18;4.68;;;;;;;0.85;97.17;100966.63;12239492;19;20042;-83
2022/01/20 19:16:56;;;;;;;14.60;4.68;;;;;;;0.98;97.03;100974.31;12237443;19;20026;-83
2022/01/20 19:20:58;;;;;;;15.38;4.60;;;;;;;1.10;97.28;100975.75;12234642;19;20011;-82
2022/01/20 19:25:00;;;;;;;13.05;5.75;;;;;;;1.24;96.79;100977.91;12231048;19;20035;-81
2022/01/20 19:29:02;;;;;;;18.05;6.65;;;;;;;1.35;96.94;100965.91;12237979;19;20038;-82
2022/01/20 19:33:05;;;;;;;14.43;6.65;;;;;;;1.40;96.70;100970.84;12231109;19;20353;-83
2022/01/20 19:37:09;;;;;;;10.00;5.10;;;;;;;1.33;96.67;100979.66;12235896;19;20563;-82
2022/01/20 19:41:12;;;;;;;13.80;4.93;;;;;;;1.23;97.10;100978.91;12229655;19;20003;-82
2022/01/20 19:45:16;;;;;;;13.85;4.50;;;;;;;1.09;96.95;100976.78;12240971;19;19999;-82
2022/01/20 19:49:18;;;;;;;10.88;4.82;;;;;;;1.03;97.49;100986.41;12238536;19;20042;-83
2022/01/20 19:53:20;;;;;;;16.27;5.70;;;;;;;1.07;97.59;100982.38;12234604;19;20011;-83
2022/01/20 19:57:22;;;;;;;9.52;4.65;;;;;;;1.13;97.32;100970.88;12235627;19;20003;-83
2022/01/20 20:01:24;;;;;;;12.60;4.32;;;;;;;1.17;96.50;100982.28;12236895;19;20002;-82